sensor_id;sensor_type;location;lat;lon;timestamp;pressure;altitude;pressure_sealevel;temperature;humidity
13934;BME280;7039;52.168;9.866;2024-03-06T01:58:00;100882.16;;;6.45;80.91
13934;BME280;7039;52.168;9.866;2024-03-06T02:01:10;100888.25;;;6.42;80.89
13934;BME280;7039;52.168;9.866;2024-03-06T02:30:20;100884.78;;;6.43;81.33
13934;BME280;7039;52.168;9.866;2024-03-06T02:44:34;100883.28;;;6.35;81.96
13934;BME280;7039;52.168;9.866;2024-03-06T02:47:54;100893.38;;;6.45;81.38
13934;BME280;7039;52.168;9.866;2024-03-06T03:25:30;100915.44;;;6.60;81.67
13934;BME280;7039;52.168;9.866;2024-03-06T03:53:59;100923.38;;;6.54;81.40
13934;BME280;7039;52.168;9.866;2024-03-06T04:35:53;100957.00;;;6.21;82.90
13934;BME280;7039;52.168;9.866;2024-03-06T04:42:24;100967.56;;;6.50;82.46
13934;BME280;7039;52.168;9.866;2024-03-06T04:45:23;100967.56;;;6.50;82.56
13934;BME280;7039;52.168;9.866;2024-03-06T09:20:16;101294.59;;;8.76;73.78
13934;BME280;7039;52.168;9.866;2024-03-06T11:45:22;101417.63;;;11.44;64.41
13934;BME280;7039;52.168;9.866;2024-03-06T12:03:42;101415.88;;;11.67;63.18
13934;BME280;7039;52.168;9.866;2024-03-06T12:33:43;101413.13;;;11.94;62.19
13934;BME280;7039;52.168;9.866;2024-03-06T12:36:45;101415.28;;;11.82;61.20
13934;BME280;7039;52.168;9.866;2024-03-06T12:39:17;101414.25;;;12.08;60.70
13934;BME280;7039;52.168;9.866;2024-03-06T13:02:47;101417.34;;;12.39;60.82
13934;BME280;7039;52.168;9.866;2024-03-06T13:08:51;101420.09;;;12.36;60.73
13934;BME280;7039;52.168;9.866;2024-03-06T13:12:06;101414.09;;;12.33;60.28
13934;BME280;7039;52.168;9.866;2024-03-06T13:14:50;101424.34;;;12.38;60.71
13934;BME280;7039;52.168;9.866;2024-03-06T13:17:22;101414.53;;;12.43;60.73
13934;BME280;7039;52.168;9.866;2024-03-06T13:36:40;101414.34;;;12.48;60.26
13934;BME280;7039;52.168;9.866;2024-03-06T13:39:10;101410.94;;;12.25;60.55
13934;BME280;7039;52.168;9.866;2024-03-06T14:25:56;101432.75;;;12.04;62.74
13934;BME280;7039;52.168;9.866;2024-03-06T14:28:26;101415.88;;;11.67;63.05
13934;BME280;7039;52.168;9.866;2024-03-06T14:30:55;101420.47;;;12.06;62.13
13934;BME280;7039;52.168;9.866;2024-03-06T14:33:23;101427.59;;;12.23;61.73
13934;BME280;7039;52.168;9.866;2024-03-06T14:35:51;101448.28;;;12.90;60.70
13934;BME280;7039;52.168;9.866;2024-03-06T14:38:22;101454.25;;;13.33;58.48
13934;BME280;7039;52.168;9.866;2024-03-06T15:59:25;101442.03;;;12.53;59.58
13934;BME280;7039;52.168;9.866;2024-03-06T16:58:39;101440.50;;;8.99;71.57
13934;BME280;7039;52.168;9.866;2024-03-06T17:06:18;101445.06;;;8.90;72.17
13934;BME280;7039;52.168;9.866;2024-03-06T17:41:56;101469.25;;;8.61;72.91
13934;BME280;7039;52.168;9.866;2024-03-06T17:45:16;101469.69;;;8.44;73.44
13934;BME280;7039;52.168;9.866;2024-03-06T18:42:46;101506.22;;;6.69;77.10
13934;BME280;7039;52.168;9.866;2024-03-06T18:45:13;101507.19;;;6.65;76.87
13934;BME280;7039;52.168;9.866;2024-03-06T18:47:43;101503.94;;;6.51;76.62
13934;BME280;7039;52.168;9.866;2024-03-06T18:50:11;101504.09;;;6.42;76.71
13934;BME280;7039;52.168;9.866;2024-03-06T18:52:38;101498.00;;;6.44;76.18
13934;BME280;7039;52.168;9.866;2024-03-06T18:55:05;101509.97;;;6.52;76.03
13934;BME280;7039;52.168;9.866;2024-03-06T18:57:32;101520.41;;;6.48;76.21
13934;BME280;7039;52.168;9.866;2024-03-06T19:00:23;101516.28;;;6.37;76.55
13934;BME280;7039;52.168;9.866;2024-03-06T19:02:51;101514.81;;;6.20;76.82
13934;BME280;7039;52.168;9.866;2024-03-06T19:05:18;101517.34;;;6.25;77.01
13934;BME280;7039;52.168;9.866;2024-03-06T19:07:49;101523.31;;;6.28;76.74
13934;BME280;7039;52.168;9.866;2024-03-06T19:13:40;101519.94;;;6.23;76.63
13934;BME280;7039;52.168;9.866;2024-03-06T19:16:08;101523.41;;;6.22;76.52
13934;BME280;7039;52.168;9.866;2024-03-06T19:18:57;101528.53;;;6.27;76.91
13934;BME280;7039;52.168;9.866;2024-03-06T19:21:26;101523.44;;;6.19;76.60
13934;BME280;7039;52.168;9.866;2024-03-06T19:23:52;101534.66;;;6.21;76.56
13934;BME280;7039;52.168;9.866;2024-03-06T19:26:19;101527.06;;;6.09;76.86
13934;BME280;7039;52.168;9.866;2024-03-06T19:28:45;101536.47;;;6.15;76.70
13934;BME280;7039;52.168;9.866;2024-03-06T19:31:18;101523.72;;;6.02;76.91
13934;BME280;7039;52.168;9.866;2024-03-06T19:37:07;101527.31;;;5.89;77.54
13934;BME280;7039;52.168;9.866;2024-03-06T19:39:35;101527.34;;;5.86;77.37
13934;BME280;7039;52.168;9.866;2024-03-06T19:48:05;101546.34;;;5.83;77.52
13934;BME280;7039;52.168;9.866;2024-03-06T19:50:31;101528.22;;;5.83;77.48
13934;BME280;7039;52.168;9.866;2024-03-06T19:53:00;101536.03;;;5.82;77.20
13934;BME280;7039;52.168;9.866;2024-03-06T19:55:28;101542.91;;;5.84;77.56
13934;BME280;7039;52.168;9.866;2024-03-06T19:57:57;101541.28;;;5.77;77.90
13934;BME280;7039;52.168;9.866;2024-03-06T20:00:24;101545.66;;;5.71;78.25
13934;BME280;7039;52.168;9.866;2024-03-06T20:02:50;101537.13;;;5.65;78.17
13934;BME280;7039;52.168;9.866;2024-03-06T20:05:18;101549.16;;;5.68;78.36
13934;BME280;7039;52.168;9.866;2024-03-06T20:10:36;101546.66;;;5.60;78.52
13934;BME280;7039;52.168;9.866;2024-03-06T20:15:45;101546.91;;;5.39;79.35
13934;BME280;7039;52.168;9.866;2024-03-06T20:18:19;101541.78;;;5.34;79.28
13934;BME280;7039;52.168;9.866;2024-03-06T20:20:47;101540.09;;;5.32;80.09
13934;BME280;7039;52.168;9.866;2024-03-06T20:23:14;101552.16;;;5.31;79.60
13934;BME280;7039;52.168;9.866;2024-03-06T20:25:41;101542.69;;;5.30;79.53
13934;BME280;7039;52.168;9.866;2024-03-06T20:28:09;101549.75;;;5.16;80.20
13934;BME280;7039;52.168;9.866;2024-03-06T20:30:36;101546.22;;;5.20;79.97
13934;BME280;7039;52.168;9.866;2024-03-06T20:33:09;101550.69;;;5.06;80.77
13934;BME280;7039;52.168;9.866;2024-03-06T20:35:35;101541.16;;;5.11;80.32
13934;BME280;7039;52.168;9.866;2024-03-06T20:38:04;101552.41;;;5.08;80.59
13934;BME280;7039;52.168;9.866;2024-03-06T20:40:30;101551.50;;;5.12;80.39
13934;BME280;7039;52.168;9.866;2024-03-06T20:42:57;101561.94;;;5.05;80.69
13934;BME280;7039;52.168;9.866;2024-03-06T20:45:24;101555.06;;;5.00;81.22
13934;BME280;7039;52.168;9.866;2024-03-06T20:47:51;101554.22;;;4.97;81.39
13934;BME280;7039;52.168;9.866;2024-03-06T20:50:26;101553.38;;;4.96;81.46
13934;BME280;7039;52.168;9.866;2024-03-06T20:52:53;101554.25;;;4.94;81.91
13934;BME280;7039;52.168;9.866;2024-03-06T20:55:21;101560.25;;;5.00;82.19
13934;BME280;7039;52.168;9.866;2024-03-06T20:57:48;101555.88;;;5.07;82.08
13934;BME280;7039;52.168;9.866;2024-03-06T21:00:16;101566.06;;;5.21;82.02
13934;BME280;7039;52.168;9.866;2024-03-06T21:02:44;101576.31;;;5.32;81.62
13934;BME280;7039;52.168;9.866;2024-03-06T21:05:14;101577.06;;;5.43;81.08
13934;BME280;7039;52.168;9.866;2024-03-06T21:07:42;101573.63;;;5.38;80.85
13934;BME280;7039;52.168;9.866;2024-03-06T21:10:09;101572.72;;;5.45;80.78
13934;BME280;7039;52.168;9.866;2024-03-06T21:15:40;101572.69;;;5.47;80.44
13934;BME280;7039;52.168;9.866;2024-03-06T21:18:07;101570.94;;;5.47;80.21
13934;BME280;7039;52.168;9.866;2024-03-06T21:20:52;101585.56;;;5.53;80.30
13934;BME280;7039;52.168;9.866;2024-03-06T21:23:19;101574.47;;;5.41;79.89
13934;BME280;7039;52.168;9.866;2024-03-06T21:55:31;101563.84;;;4.84;80.61
13934;BME280;7039;52.168;9.866;2024-03-06T22:04:50;101570.91;;;4.64;81.82
